sensor_id;sensor_type;location;lat;lon;timestamp;pressure;altitude;pressure_sealevel;temperature;humidity
13732;BME280;6937;56.096;12.664;2022-12-07T00:01:11;100741.25;;;1.86;100.00
13732;BME280;6937;56.096;12.664;2022-12-07T00:03:38;100743.94;;;1.84;100.00
13732;BME280;6937;56.096;12.664;2022-12-07T00:06:05;100730.88;;;1.81;100.00
13732;BME280;6937;56.096;12.664;2022-12-07T00:08:32;100731.75;;;1.82;100.00
13732;BME280;6937;56.096;12.664;2022-12-07T00:11:19;100733.53;;;1.81;100.00
13732;BME280;6937;56.096;12.664;2022-12-07T00:13:46;100735.53;;;1.75;100.00
13732;BME280;6937;56.096;12.664;2022-12-07T00:16:14;100730.16;;;1.78;100.00
13732;BME280;6937;56.096;12.664;2022-12-07T00:18:41;100740.56;;;1.81;100.00
13732;BME280;6937;56.096;12.664;2022-12-07T00:21:10;100727.50;;;1.78;100.00
13732;BME280;6937;56.096;12.664;2022-12-07T00:23:36;100733.59;;;1.80;100.00
13732;BME280;6937;56.096;12.664;2022-12-07T00:26:26;100729.28;;;1.77;100.00
13732;BME280;6937;56.096;12.664;2022-12-07T00:28:55;100732.91;;;1.75;100.00
13732;BME280;6937;56.096;12.664;2022-12-07T00:31:23;100718.22;;;1.68;100.00
13732;BME280;6937;56.096;12.664;2022-12-07T00:33:49;100726.75;;;1.74;100.00
13732;BME280;6937;56.096;12.664;2022-12-07T00:36:17;100727.75;;;1.72;100.00
13732;BME280;6937;56.096;12.664;2022-12-07T00:38:42;100719.84;;;1.72;100.00
13732;BME280;6937;56.096;12.664;2022-12-07T00:41:16;100719.84;;;1.72;100.00
13732;BME280;6937;56.096;12.664;2022-12-07T00:43:43;100712.09;;;1.67;100.00
13732;BME280;6937;56.096;12.664;2022-12-07T00:46:09;100707.81;;;1.65;100.00
13732;BME280;6937;56.096;12.664;2022-12-07T00:48:35;100720.78;;;1.69;100.00
13732;BME280;6937;56.096;12.664;2022-12-07T00:51:02;100721.78;;;1.67;100.00
13732;BME280;6937;56.096;12.664;2022-12-07T00:53:27;100719.19;;;1.65;100.00
13732;BME280;6937;56.096;12.664;2022-12-07T00:55:53;100713.09;;;1.65;100.00
13732;BME280;6937;56.096;12.664;2022-12-07T00:58:19;100709.50;;;1.66;100.00
13732;BME280;6937;56.096;12.664;2022-12-07T01:00:45;100684.28;;;1.60;100.00
13732;BME280;6937;56.096;12.664;2022-12-07T01:03:13;100678.13;;;1.60;100.00
13732;BME280;6937;56.096;12.664;2022-12-07T01:05:40;100686.81;;;1.62;100.00
13732;BME280;6937;56.096;12.664;2022-12-07T01:08:06;100670.47;;;1.54;100.00
13732;BME280;6937;56.096;12.664;2022-12-07T01:10:32;100674.69;;;1.58;100.00
13732;BME280;6937;56.096;12.664;2022-12-07T01:12:58;100650.31;;;1.53;100.00
13732;BME280;6937;56.096;12.664;2022-12-07T01:15:24;100659.00;;;1.55;100.00
13732;BME280;6937;56.096;12.664;2022-12-07T01:17:50;100648.56;;;1.53;100.00
13732;BME280;6937;56.096;12.664;2022-12-07T01:20:16;100639.78;;;1.53;100.00
13732;BME280;6937;56.096;12.664;2022-12-07T01:22:43;100614.53;;;1.47;100.00
13732;BME280;6937;56.096;12.664;2022-12-07T01:25:09;100596.38;;;1.39;100.00
13732;BME280;6937;56.096;12.664;2022-12-07T01:27:35;100597.97;;;1.43;100.00
13732;BME280;6937;56.096;12.664;2022-12-07T01:30:02;100604.06;;;1.45;100.00
13732;BME280;6937;56.096;12.664;2022-12-07T01:32:28;100627.53;;;1.52;100.00
13732;BME280;6937;56.096;12.664;2022-12-07T01:34:54;100632.75;;;1.53;100.00
13732;BME280;6937;56.096;12.664;2022-12-07T01:37:19;100623.28;;;1.48;100.00
13732;BME280;6937;56.096;12.664;2022-12-07T01:39:48;100619.88;;;1.45;100.00
13732;BME280;6937;56.096;12.664;2022-12-07T01:42:14;100625.00;;;1.49;100.00
13732;BME280;6937;56.096;12.664;2022-12-07T01:47:46;100626.81;;;1.46;100.00
13732;BME280;6937;56.096;12.664;2022-12-07T01:50:12;100633.03;;;1.45;100.00
13732;BME280;6937;56.096;12.664;2022-12-07T01:52:39;100636.44;;;1.48;100.00
13732;BME280;6937;56.096;12.664;2022-12-07T01:55:08;100644.22;;;1.51;100.00
13732;BME280;6937;56.096;12.664;2022-12-07T01:57:37;100646.00;;;1.50;100.00
13732;BME280;6937;56.096;12.664;2022-12-07T02:00:05;100654.59;;;1.55;100.00
13732;BME280;6937;56.096;12.664;2022-12-07T02:02:37;100658.88;;;1.58;100.00
13732;BME280;6937;56.096;12.664;2022-12-07T02:05:05;100674.31;;;1.68;100.00
13732;BME280;6937;56.096;12.664;2022-12-07T02:07:32;100655.13;;;1.65;100.00
13732;BME280;6937;56.096;12.664;2022-12-07T02:10:16;100656.72;;;1.69;100.00
13732;BME280;6937;56.096;12.664;2022-12-07T02:12:44;100660.91;;;1.74;100.00
13732;BME280;6937;56.096;12.664;2022-12-07T02:15:12;100657.28;;;1.77;100.00
13732;BME280;6937;56.096;12.664;2022-12-07T02:17:59;100660.63;;;1.82;100.00
13732;BME280;6937;56.096;12.664;2022-12-07T02:20:30;100647.44;;;1.82;100.00
13732;BME280;6937;56.096;12.664;2022-12-07T02:26:11;100641.09;;;1.87;100.00
13732;BME280;6937;56.096;12.664;2022-12-07T02:29:20;100599.09;;;1.83;100.00
13732;BME280;6937;56.096;12.664;2022-12-07T02:32:03;100567.84;;;1.74;100.00
13732;BME280;6937;56.096;12.664;2022-12-07T02:35:07;100561.78;;;1.72;100.00
13732;BME280;6937;56.096;12.664;2022-12-07T02:38:25;100575.63;;;1.77;100.00
13732;BME280;6937;56.096;12.664;2022-12-07T02:40:41;100602.59;;;1.83;100.00
13732;BME280;6937;56.096;12.664;2022-12-07T02:43:16;100592.81;;;1.87;100.00
13732;BME280;6937;56.096;12.664;2022-12-07T02:45:44;100606.72;;;1.90;100.00
13732;BME280;6937;56.096;12.664;2022-12-07T02:48:14;100606.59;;;1.93;100.00
13732;BME280;6937;56.096;12.664;2022-12-07T02:50:48;100560.25;;;1.88;100.00
13732;BME280;6937;56.096;12.664;2022-12-07T02:53:33;100570.47;;;1.95;100.00
13732;BME280;6937;56.096;12.664;2022-12-07T02:59:25;100549.09;;;2.03;100.00
13732;BME280;6937;56.096;12.664;2022-12-07T03:13:09;100443.78;;;1.58;100.00
13732;BME280;6937;56.096;12.664;2022-12-07T03:18:24;100404.41;;;1.35;100.00
13732;BME280;6937;56.096;12.664;2022-12-07T03:20:55;100412.22;;;1.36;100.00
13732;BME280;6937;56.096;12.664;2022-12-07T03:23:23;100387.31;;;1.23;100.00
13732;BME280;6937;56.096;12.664;2022-12-07T03:25:56;100390.25;;;1.16;100.00
13732;BME280;6937;56.096;12.664;2022-12-07T03:28:24;100385.47;;;1.04;100.00
13732;BME280;6937;56.096;12.664;2022-12-07T03:31:05;100376.97;;;0.97;100.00
13732;BME280;6937;56.096;12.664;2022-12-07T03:33:44;100374.66;;;0.89;100.00
13732;BME280;6937;56.096;12.664;2022-12-07T03:36:39;100372.31;;;0.82;100.00
13732;BME280;6937;56.096;12.664;2022-12-07T03:39:35;100386.13;;;0.87;100.00
13732;BME280;6937;56.096;12.664;2022-12-07T03:42:05;100363.47;;;0.83;100.00
13732;BME280;6937;56.096;12.664;2022-12-07T03:44:33;100367.34;;;0.74;100.00
13732;BME280;6937;56.096;12.664;2022-12-07T03:47:26;100371.06;;;0.69;100.00
13732;BME280;6937;56.096;12.664;2022-12-07T03:52:45;100410.81;;;0.83;100.00
13732;BME280;6937;56.096;12.664;2022-12-07T03:55:18;100395.03;;;0.83;100.00
13732;BME280;6937;56.096;12.664;2022-12-07T03:57:47;100347.09;;;0.76;100.00
13732;BME280;6937;56.096;12.664;2022-12-07T04:00:14;100357.56;;;0.78;100.00
13732;BME280;6937;56.096;12.664;2022-12-07T04:02:41;100337.69;;;0.71;100.00
13732;BME280;6937;56.096;12.664;2022-12-07T04:05:07;100354.97;;;0.76;100.00
13732;BME280;6937;56.096;12.664;2022-12-07T04:07:33;100385.38;;;0.83;100.00
13732;BME280;6937;56.096;12.664;2022-12-07T04:09:58;100378.47;;;0.81;100.00
13732;BME280;6937;56.096;12.664;2022-12-07T04:12:23;100385.09;;;0.91;100.00
13732;BME280;6937;56.096;12.664;2022-12-07T04:14:49;100364.16;;;0.88;100.00
13732;BME280;6937;56.096;12.664;2022-12-07T04:17:15;100392.63;;;1.00;100.00
13732;BME280;6937;56.096;12.664;2022-12-07T04:19:40;100354.22;;;0.96;100.00
13732;BME280;6937;56.096;12.664;2022-12-07T04:22:06;100324.03;;;0.83;100.00
13732;BME280;6937;56.096;12.664;2022-12-07T04:24:33;100336.16;;;0.87;100.00
13732;BME280;6937;56.096;12.664;2022-12-07T04:26:58;100350.88;;;0.91;100.00
13732;BME280;6937;56.096;12.664;2022-12-07T04:29:24;100329.25;;;0.84;100.00
13732;BME280;6937;56.096;12.664;2022-12-07T04:31:50;100323.97;;;0.84;100.00
13732;BME280;6937;56.096;12.664;2022-12-07T04:34:16;100327.66;;;0.80;100.00
13732;BME280;6937;56.096;12.664;2022-12-07T04:36:42;100324.16;;;0.80;100.00
13732;BME280;6937;56.096;12.664;2022-12-07T04:39:17;100317.19;;;0.79;100.00
13732;BME280;6937;56.096;12.664;2022-12-07T04:41:43;100314.53;;;0.79;100.00
13732;BME280;6937;56.096;12.664;2022-12-07T04:44:09;100324.84;;;0.85;100.00
13732;BME280;6937;56.096;12.664;2022-12-07T04:46:35;100317.84;;;0.84;100.00
13732;BME280;6937;56.096;12.664;2022-12-07T04:49:00;100315.97;;;0.87;100.00
13732;BME280;6937;56.096;12.664;2022-12-07T04:51:28;100325.41;;;0.93;100.00
13732;BME280;6937;56.096;12.664;2022-12-07T04:53:55;100288.03;;;0.85;100.00
13732;BME280;6937;56.096;12.664;2022-12-07T04:56:21;100288.25;;;0.79;100.00
13732;BME280;6937;56.096;12.664;2022-12-07T04:58:47;100292.69;;;0.78;100.00
13732;BME280;6937;56.096;12.664;2022-12-07T05:01:14;100293.50;;;0.79;100.00
13732;BME280;6937;56.096;12.664;2022-12-07T05:03:40;100286.91;;;0.69;100.00
13732;BME280;6937;56.096;12.664;2022-12-07T05:06:06;100287.63;;;0.72;100.00
13732;BME280;6937;56.096;12.664;2022-12-07T05:08:33;100273.84;;;0.67;100.00
13732;BME280;6937;56.096;12.664;2022-12-07T05:10:59;100267.00;;;0.63;100.00
13732;BME280;6937;56.096;12.664;2022-12-07T05:13:25;100268.75;;;0.63;100.00
13732;BME280;6937;56.096;12.664;2022-12-07T05:15:51;100267.34;;;0.54;100.00
13732;BME280;6937;56.096;12.664;2022-12-07T05:18:16;100274.25;;;0.57;100.00
13732;BME280;6937;56.096;12.664;2022-12-07T05:20:42;100288.19;;;0.59;100.00
13732;BME280;6937;56.096;12.664;2022-12-07T05:23:08;100271.69;;;0.55;100.00
13732;BME280;6937;56.096;12.664;2022-12-07T05:25:34;100271.59;;;0.57;100.00
13732;BME280;6937;56.096;12.664;2022-12-07T05:27:59;100274.31;;;0.55;100.00
13732;BME280;6937;56.096;12.664;2022-12-07T05:30:26;100268.94;;;0.58;100.00
13732;BME280;6937;56.096;12.664;2022-12-07T05:32:51;100257.84;;;0.50;100.00
13732;BME280;6937;56.096;12.664;2022-12-07T05:35:18;100258.75;;;0.49;100.00
13732;BME280;6937;56.096;12.664;2022-12-07T05:37:43;100262.50;;;0.43;100.00
13732;BME280;6937;56.096;12.664;2022-12-07T05:40:09;100260.88;;;0.41;100.00
13732;BME280;6937;56.096;12.664;2022-12-07T05:42:35;100254.91;;;0.36;100.00
13732;BME280;6937;56.096;12.664;2022-12-07T05:45:01;100253.38;;;0.30;100.00
13732;BME280;6937;56.096;12.664;2022-12-07T05:47:27;100254.47;;;0.25;100.00
13732;BME280;6937;56.096;12.664;2022-12-07T05:49:52;100255.34;;;0.25;100.00
13732;BME280;6937;56.096;12.664;2022-12-07T05:52:18;100266.75;;;0.24;100.00
13732;BME280;6937;56.096;12.664;2022-12-07T05:54:43;100252.09;;;0.19;100.00
13732;BME280;6937;56.096;12.664;2022-12-07T05:57:09;100247.47;;;0.02;100.00
13732;BME280;6937;56.096;12.664;2022-12-07T05:59:34;100248.91;;;-0.13;100.00
13732;BME280;6937;56.096;12.664;2022-12-07T06:02:02;100255.34;;;-0.21;100.00
13732;BME280;6937;56.096;12.664;2022-12-07T06:04:31;100248.59;;;-0.28;100.00
13732;BME280;6937;56.096;12.664;2022-12-07T06:06:57;100241.81;;;-0.34;100.00
13732;BME280;6937;56.096;12.664;2022-12-07T06:09:24;100236.94;;;-0.44;100.00
13732;BME280;6937;56.096;12.664;2022-12-07T06:11:50;100254.41;;;-0.43;100.00
13732;BME280;6937;56.096;12.664;2022-12-07T06:14:34;100265.91;;;-0.47;100.00
13732;BME280;6937;56.096;12.664;2022-12-07T06:16:59;100253.66;;;-0.47;100.00
13732;BME280;6937;56.096;12.664;2022-12-07T06:19:25;100256.50;;;-0.53;100.00
13732;BME280;6937;56.096;12.664;2022-12-07T06:21:51;100259.13;;;-0.53;100.00
13732;BME280;6937;56.096;12.664;2022-12-07T06:24:17;100269.72;;;-0.56;100.00
13732;BME280;6937;56.096;12.664;2022-12-07T06:26:43;100279.41;;;-0.58;100.00
13732;BME280;6937;56.096;12.664;2022-12-07T06:29:09;100282.91;;;-0.58;100.00
13732;BME280;6937;56.096;12.664;2022-12-07T06:31:35;100278.78;;;-0.65;100.00
13732;BME280;6937;56.096;12.664;2022-12-07T06:34:04;100268.41;;;-0.68;100.00
13732;BME280;6937;56.096;12.664;2022-12-07T06:36:30;100252.16;;;-0.79;100.00
13732;BME280;6937;56.096;12.664;2022-12-07T06:38:56;100259.31;;;-0.84;100.00
13732;BME280;6937;56.096;12.664;2022-12-07T06:41:22;100282.84;;;-0.82;100.00
13732;BME280;6937;56.096;12.664;2022-12-07T06:43:48;100280.56;;;-0.91;100.00
13732;BME280;6937;56.096;12.664;2022-12-07T06:46:14;100292.78;;;-0.90;100.00
13732;BME280;6937;56.096;12.664;2022-12-07T06:48:41;100293.69;;;-0.91;100.00
13732;BME280;6937;56.096;12.664;2022-12-07T06:51:06;100299.81;;;-0.92;100.00
13732;BME280;6937;56.096;12.664;2022-12-07T06:53:32;100301.69;;;-0.96;100.00
13732;BME280;6937;56.096;12.664;2022-12-07T06:55:57;100304.41;;;-0.99;100.00
13732;BME280;6937;56.096;12.664;2022-12-07T06:58:22;100312.94;;;-0.92;100.00
13732;BME280;6937;56.096;12.664;2022-12-07T07:00:48;100309.56;;;-0.96;100.00
13732;BME280;6937;56.096;12.664;2022-12-07T07:03:15;100308.94;;;-1.04;100.00
13732;BME280;6937;56.096;12.664;2022-12-07T07:05:41;100306.22;;;-1.01;100.00
13732;BME280;6937;56.096;12.664;2022-12-07T07:08:07;100326.41;;;-1.03;100.00
13732;BME280;6937;56.096;12.664;2022-12-07T07:10:33;100335.16;;;-1.04;100.00
13732;BME280;6937;56.096;12.664;2022-12-07T07:12:59;100338.78;;;-1.08;100.00
13732;BME280;6937;56.096;12.664;2022-12-07T07:15:24;100326.03;;;-1.19;100.00
13732;BME280;6937;56.096;12.664;2022-12-07T07:17:50;100336.56;;;-1.20;100.00
13732;BME280;6937;56.096;12.664;2022-12-07T07:20:15;100351.97;;;-1.10;100.00
13732;BME280;6937;56.096;12.664;2022-12-07T07:22:40;100364.22;;;-1.10;100.00
13732;BME280;6937;56.096;12.664;2022-12-07T07:25:06;100356.28;;;-1.09;100.00
13732;BME280;6937;56.096;12.664;2022-12-07T07:27:32;100375.25;;;-1.01;100.00
13732;BME280;6937;56.096;12.664;2022-12-07T07:29:57;100368.31;;;-1.02;100.00
13732;BME280;6937;56.096;12.664;2022-12-07T07:32:23;100380.44;;;-0.98;100.00
13732;BME280;6937;56.096;12.664;2022-12-07T07:34:48;100385.38;;;-0.88;100.00
13732;BME280;6937;56.096;12.664;2022-12-07T07:37:14;100390.47;;;-0.84;100.00
13732;BME280;6937;56.096;12.664;2022-12-07T07:39:39;100389.59;;;-0.83;100.00
13732;BME280;6937;56.096;12.664;2022-12-07T07:42:06;100389.63;;;-0.84;100.00
13732;BME280;6937;56.096;12.664;2022-12-07T07:44:33;100409.50;;;-0.77;100.00
13732;BME280;6937;56.096;12.664;2022-12-07T07:46:58;100394.72;;;-0.80;100.00
13732;BME280;6937;56.096;12.664;2022-12-07T07:49:24;100406.75;;;-0.74;100.00
13732;BME280;6937;56.096;12.664;2022-12-07T07:51:49;100407.63;;;-0.74;100.00
13732;BME280;6937;56.096;12.664;2022-12-07T07:54:14;100422.25;;;-0.67;100.00
13732;BME280;6937;56.096;12.664;2022-12-07T07:56:40;100412.59;;;-0.65;100.00
13732;BME280;6937;56.096;12.664;2022-12-07T07:59:05;100417.97;;;-0.69;100.00
13732;BME280;6937;56.096;12.664;2022-12-07T08:01:30;100413.63;;;-0.70;100.00
13732;BME280;6937;56.096;12.664;2022-12-07T08:03:56;100406.84;;;-0.76;100.00
13732;BME280;6937;56.096;12.664;2022-12-07T08:06:21;100416.50;;;-0.78;100.00
13732;BME280;6937;56.096;12.664;2022-12-07T08:08:46;100426.13;;;-0.78;100.00
13732;BME280;6937;56.096;12.664;2022-12-07T08:11:12;100433.06;;;-0.76;100.00
13732;BME280;6937;56.096;12.664;2022-12-07T08:13:37;100426.97;;;-0.76;100.00
13732;BME280;6937;56.096;12.664;2022-12-07T08:16:04;100420.09;;;-0.80;100.00
13732;BME280;6937;56.096;12.664;2022-12-07T08:18:30;100425.38;;;-0.82;100.00
13732;BME280;6937;56.096;12.664;2022-12-07T08:20:59;100429.63;;;-0.78;100.00
13732;BME280;6937;56.096;12.664;2022-12-07T08:23:26;100444.13;;;-0.66;100.00
13732;BME280;6937;56.096;12.664;2022-12-07T08:25:51;100443.94;;;-0.60;100.00
13732;BME280;6937;56.096;12.664;2022-12-07T08:28:16;100448.38;;;-0.62;100.00
13732;BME280;6937;56.096;12.664;2022-12-07T08:30:42;100451.84;;;-0.62;100.00
13732;BME280;6937;56.096;12.664;2022-12-07T08:33:09;100469.25;;;-0.59;100.00
13732;BME280;6937;56.096;12.664;2022-12-07T08:35:35;100473.41;;;-0.52;100.00
13732;BME280;6937;56.096;12.664;2022-12-07T08:38:01;100469.94;;;-0.53;100.00
13732;BME280;6937;56.096;12.664;2022-12-07T08:40:27;100464.63;;;-0.51;100.00
13732;BME280;6937;56.096;12.664;2022-12-07T08:42:53;100455.88;;;-0.52;100.00
13732;BME280;6937;56.096;12.664;2022-12-07T08:45:20;100447.16;;;-0.52;100.00
13732;BME280;6937;56.096;12.664;2022-12-07T08:48:15;100458.47;;;-0.50;100.00
13732;BME280;6937;56.096;12.664;2022-12-07T08:50:43;100465.47;;;-0.49;100.00
13732;BME280;6937;56.096;12.664;2022-12-07T08:53:08;100480.16;;;-0.45;100.00
13732;BME280;6937;56.096;12.664;2022-12-07T08:55:34;100477.22;;;-0.34;100.00
13732;BME280;6937;56.096;12.664;2022-12-07T08:58:02;100467.50;;;-0.32;100.00
13732;BME280;6937;56.096;12.664;2022-12-07T09:00:28;100459.59;;;-0.31;100.00
13732;BME280;6937;56.096;12.664;2022-12-07T09:02:54;100466.47;;;-0.27;100.00
13732;BME280;6937;56.096;12.664;2022-12-07T09:05:19;100452.59;;;-0.30;100.00
13732;BME280;6937;56.096;12.664;2022-12-07T09:07:49;100451.59;;;-0.26;100.00
13732;BME280;6937;56.096;12.664;2022-12-07T09:10:16;100458.41;;;-0.22;100.00
13732;BME280;6937;56.096;12.664;2022-12-07T09:12:42;100460.91;;;-0.18;100.00
13732;BME280;6937;56.096;12.664;2022-12-07T09:15:07;100463.47;;;-0.16;100.00
13732;BME280;6937;56.096;12.664;2022-12-07T09:17:33;100446.25;;;-0.25;100.00
13732;BME280;6937;56.096;12.664;2022-12-07T09:19:59;100451.50;;;-0.25;100.00
13732;BME280;6937;56.096;12.664;2022-12-07T09:22:29;100453.16;;;-0.22;100.00
13732;BME280;6937;56.096;12.664;2022-12-07T09:24:55;100467.00;;;-0.17;100.00
13732;BME280;6937;56.096;12.664;2022-12-07T09:27:20;100466.91;;;-0.14;100.00
13732;BME280;6937;56.096;12.664;2022-12-07T09:29:46;100460.16;;;-0.21;100.00
13732;BME280;6937;56.096;12.664;2022-12-07T09:32:11;100441.06;;;-0.26;100.00
13732;BME280;6937;56.096;12.664;2022-12-07T09:34:36;100457.66;;;-0.26;100.00
13732;BME280;6937;56.096;12.664;2022-12-07T09:37:02;100466.25;;;-0.21;100.00
13732;BME280;6937;56.096;12.664;2022-12-07T09:39:28;100457.63;;;-0.24;100.00
13732;BME280;6937;56.096;12.664;2022-12-07T09:41:54;100441.97;;;-0.27;100.00
13732;BME280;6937;56.096;12.664;2022-12-07T09:44:24;100441.34;;;-0.34;100.00
13732;BME280;6937;56.096;12.664;2022-12-07T09:46:51;100455.28;;;-0.33;100.00
13732;BME280;6937;56.096;12.664;2022-12-07T09:49:20;100457.78;;;-0.29;100.00
13732;BME280;6937;56.096;12.664;2022-12-07T09:51:58;100467.16;;;-0.22;100.00
13732;BME280;6937;56.096;12.664;2022-12-07T09:54:24;100453.16;;;-0.22;100.00
13732;BME280;6937;56.096;12.664;2022-12-07T09:56:50;100453.16;;;-0.22;100.00
13732;BME280;6937;56.096;12.664;2022-12-07T09:59:17;100448.88;;;-0.25;100.00
13732;BME280;6937;56.096;12.664;2022-12-07T10:01:44;100454.22;;;-0.26;100.00
13732;BME280;6937;56.096;12.664;2022-12-07T10:04:18;100449.09;;;-0.31;100.00
13732;BME280;6937;56.096;12.664;2022-12-07T10:06:44;100450.88;;;-0.31;100.00
13732;BME280;6937;56.096;12.664;2022-12-07T10:09:15;100440.41;;;-0.33;100.00
13732;BME280;6937;56.096;12.664;2022-12-07T10:14:27;100450.25;;;-0.39;100.00
13732;BME280;6937;56.096;12.664;2022-12-07T10:16:54;100442.41;;;-0.41;100.00
13732;BME280;6937;56.096;12.664;2022-12-07T10:19:27;100430.38;;;-0.46;100.00
13732;BME280;6937;56.096;12.664;2022-12-07T10:22:13;100435.66;;;-0.48;100.00
13732;BME280;6937;56.096;12.664;2022-12-07T10:24:40;100434.03;;;-0.52;100.00
13732;BME280;6937;56.096;12.664;2022-12-07T10:27:31;100449.78;;;-0.52;100.00
13732;BME280;6937;56.096;12.664;2022-12-07T10:29:57;100454.19;;;-0.53;100.00
13732;BME280;6937;56.096;12.664;2022-12-07T10:32:31;100454.09;;;-0.50;100.00
13732;BME280;6937;56.096;12.664;2022-12-07T10:35:23;100467.97;;;-0.46;100.00
13732;BME280;6937;56.096;12.664;2022-12-07T10:37:50;100466.16;;;-0.44;100.00
13732;BME280;6937;56.096;12.664;2022-12-07T10:48:59;100441.88;;;-0.51;100.00
13732;BME280;6937;56.096;12.664;2022-12-07T11:00:24;100434.34;;;-0.61;100.00
13732;BME280;6937;56.096;12.664;2022-12-07T11:03:15;100437.91;;;-0.64;100.00
13732;BME280;6937;56.096;12.664;2022-12-07T11:08:39;100443.97;;;-0.62;100.00
13732;BME280;6937;56.096;12.664;2022-12-07T11:11:40;100438.84;;;-0.65;100.00
13732;BME280;6937;56.096;12.664;2022-12-07T11:14:29;100429.22;;;-0.64;100.00
13732;BME280;6937;56.096;12.664;2022-12-07T11:17:09;100425.72;;;-0.65;100.00
13732;BME280;6937;56.096;12.664;2022-12-07T11:25:44;100442.25;;;-0.63;100.00
13732;BME280;6937;56.096;12.664;2022-12-07T11:31:23;100431.09;;;-0.69;100.00
13732;BME280;6937;56.096;12.664;2022-12-07T11:34:15;100443.31;;;-0.68;100.00
13732;BME280;6937;56.096;12.664;2022-12-07T11:36:48;100433.00;;;-0.74;100.00
13732;BME280;6937;56.096;12.664;2022-12-07T11:41:45;100444.44;;;-0.75;100.00
13732;BME280;6937;56.096;12.664;2022-12-07T11:44:25;100454.00;;;-0.74;100.00
13732;BME280;6937;56.096;12.664;2022-12-07T11:52:43;100432.94;;;-0.71;100.00
13732;BME280;6937;56.096;12.664;2022-12-07T11:55:51;100425.09;;;-0.73;100.00
13732;BME280;6937;56.096;12.664;2022-12-07T12:03:44;100438.94;;;-0.68;100.00
13732;BME280;6937;56.096;12.664;2022-12-07T12:06:10;100437.09;;;-0.66;100.00
13732;BME280;6937;56.096;12.664;2022-12-07T12:08:42;100439.63;;;-0.63;100.00
13732;BME280;6937;56.096;12.664;2022-12-07T12:19:28;100414.81;;;-0.53;100.00
13732;BME280;6937;56.096;12.664;2022-12-07T12:22:06;100421.72;;;-0.50;100.00
13732;BME280;6937;56.096;12.664;2022-12-07T12:24:38;100426.00;;;-0.47;100.00
13732;BME280;6937;56.096;12.664;2022-12-07T12:27:08;100437.34;;;-0.45;100.00
13732;BME280;6937;56.096;12.664;2022-12-07T12:29:39;100437.28;;;-0.44;100.00
13732;BME280;6937;56.096;12.664;2022-12-07T12:37:45;100419.78;;;-0.45;100.00
13732;BME280;6937;56.096;12.664;2022-12-07T12:42:52;100417.25;;;-0.46;100.00
13732;BME280;6937;56.096;12.664;2022-12-07T12:45:23;100442.34;;;-0.38;100.00
13732;BME280;6937;56.096;12.664;2022-12-07T12:48:29;100395.28;;;-0.44;100.00
13732;BME280;6937;56.096;12.664;2022-12-07T12:51:37;100364.97;;;-0.53;100.00
13732;BME280;6937;56.096;12.664;2022-12-07T12:54:08;100342.53;;;-0.63;100.00
13732;BME280;6937;56.096;12.664;2022-12-07T12:56:46;100366.91;;;-0.59;100.00
13732;BME280;6937;56.096;12.664;2022-12-07T13:02:21;100399.78;;;-0.47;100.00
13732;BME280;6937;56.096;12.664;2022-12-07T13:04:49;100423.22;;;-0.41;100.00
13732;BME280;6937;56.096;12.664;2022-12-07T13:13:00;100420.41;;;-0.37;100.00
13732;BME280;6937;56.096;12.664;2022-12-07T13:26:36;100435.72;;;-0.23;100.00
13732;BME280;6937;56.096;12.664;2022-12-07T13:29:13;100442.63;;;-0.21;100.00
13732;BME280;6937;56.096;12.664;2022-12-07T13:31:52;100429.53;;;-0.22;100.00
13732;BME280;6937;56.096;12.664;2022-12-07T13:34:35;100395.63;;;-0.28;100.00
13732;BME280;6937;56.096;12.664;2022-12-07T13:39:53;100364.50;;;-0.39;100.00
13732;BME280;6937;56.096;12.664;2022-12-07T13:44:44;100366.38;;;-0.42;100.00
13732;BME280;6937;56.096;12.664;2022-12-07T13:47:31;100346.53;;;-0.51;100.00
13732;BME280;6937;56.096;12.664;2022-12-07T13:49:59;100367.53;;;-0.51;100.00
13732;BME280;6937;56.096;12.664;2022-12-07T13:52:30;100392.00;;;-0.51;100.00
13732;BME280;6937;56.096;12.664;2022-12-07T13:55:22;100400.75;;;-0.50;100.00
13732;BME280;6937;56.096;12.664;2022-12-07T13:57:50;100381.88;;;-0.61;100.00
13732;BME280;6937;56.096;12.664;2022-12-07T14:00:18;100376.72;;;-0.64;100.00
13732;BME280;6937;56.096;12.664;2022-12-07T14:02:55;100403.72;;;-0.61;100.00
13732;BME280;6937;56.096;12.664;2022-12-07T14:05:27;100418.53;;;-0.60;100.00
13732;BME280;6937;56.096;12.664;2022-12-07T14:07:58;100424.72;;;-0.61;100.00
13732;BME280;6937;56.096;12.664;2022-12-07T14:10:36;100428.34;;;-0.65;100.00
13732;BME280;6937;56.096;12.664;2022-12-07T14:13:03;100461.38;;;-0.59;100.00
13732;BME280;6937;56.096;12.664;2022-12-07T14:15:50;100454.28;;;-0.56;100.00
13732;BME280;6937;56.096;12.664;2022-12-07T14:18:41;100444.78;;;-0.60;100.00
13732;BME280;6937;56.096;12.664;2022-12-07T14:23:35;100464.69;;;-0.53;100.00
13732;BME280;6937;56.096;12.664;2022-12-07T14:26:07;100455.03;;;-0.52;100.00
13732;BME280;6937;56.096;12.664;2022-12-07T14:28:37;100460.34;;;-0.54;100.00
13732;BME280;6937;56.096;12.664;2022-12-07T14:31:03;100471.63;;;-0.52;100.00
13732;BME280;6937;56.096;12.664;2022-12-07T14:33:35;100472.50;;;-0.51;100.00
13732;BME280;6937;56.096;12.664;2022-12-07T14:36:00;100477.59;;;-0.46;100.00
13732;BME280;6937;56.096;12.664;2022-12-07T14:38:26;100468.88;;;-0.47;100.00
13732;BME280;6937;56.096;12.664;2022-12-07T14:40:52;100470.75;;;-0.51;100.00
13732;BME280;6937;56.096;12.664;2022-12-07T14:43:19;100472.72;;;-0.57;100.00
13732;BME280;6937;56.096;12.664;2022-12-07T14:45:45;100486.50;;;-0.51;100.00
13732;BME280;6937;56.096;12.664;2022-12-07T14:48:12;100492.63;;;-0.52;100.00
13732;BME280;6937;56.096;12.664;2022-12-07T14:50:47;100495.22;;;-0.50;100.00
13732;BME280;6937;56.096;12.664;2022-12-07T14:53:16;100492.63;;;-0.52;100.00
13732;BME280;6937;56.096;12.664;2022-12-07T14:55:42;100479.63;;;-0.55;100.00